createdAt,value
2019-05-29T00:00:05.762Z,99.90
2019-05-29T00:02:34.734Z,99.90
2019-05-29T00:05:04.531Z,99.90
2019-05-29T00:07:33.030Z,99.90
2019-05-29T00:10:01.852Z,99.90
2019-05-29T00:12:30.377Z,99.90
2019-05-29T00:14:58.831Z,99.90
2019-05-29T00:17:27.304Z,99.90
2019-05-29T00:19:55.831Z,99.90
2019-05-29T00:22:24.305Z,99.90
2019-05-29T00:24:53.051Z,99.90
2019-05-29T00:27:21.527Z,99.90
2019-05-29T00:29:49.984Z,99.90
2019-05-29T00:32:18.820Z,99.90
2019-05-29T00:34:47.712Z,99.90
2019-05-29T00:37:16.721Z,99.90
2019-05-29T00:39:45.311Z,99.90
2019-05-29T00:42:14.853Z,99.90
2019-05-29T00:44:43.971Z,99.90
2019-05-29T00:47:13.593Z,99.90
2019-05-29T00:49:42.620Z,99.90
2019-05-29T00:52:12.226Z,99.90
2019-05-29T00:54:41.129Z,99.90
2019-05-29T00:57:10.882Z,99.90
2019-05-29T00:59:39.836Z,99.90
2019-05-29T01:02:09.466Z,99.90
2019-05-29T01:04:38.443Z,99.90
2019-05-29T01:07:06.902Z,99.90
2019-05-29T01:09:35.380Z,99.90
2019-05-29T01:12:04.215Z,99.90
2019-05-29T01:14:33.106Z,99.90
2019-05-29T01:17:01.638Z,99.90
2019-05-29T01:19:30.285Z,99.90
2019-05-29T01:21:58.753Z,99.90
2019-05-29T01:24:27.299Z,99.90
2019-05-29T01:26:55.762Z,99.90
2019-05-29T01:29:24.318Z,99.90
2019-05-29T01:31:53.543Z,99.90
2019-05-29T01:34:22.066Z,99.90
2019-05-29T01:36:50.556Z,99.90
2019-05-29T01:39:19.430Z,99.90
2019-05-29T01:41:47.931Z,99.90
2019-05-29T01:44:17.425Z,99.90
2019-05-29T01:46:46.043Z,99.90
2019-05-29T01:49:16.014Z,99.90
2019-05-29T01:51:44.740Z,99.90
2019-05-29T01:54:13.219Z,99.90
2019-05-29T01:56:41.980Z,99.90
2019-05-29T01:59:10.531Z,99.90
2019-05-29T02:01:38.991Z,99.90
2019-05-29T02:04:07.846Z,99.90
2019-05-29T02:06:36.736Z,99.90
2019-05-29T02:09:06.957Z,99.90
2019-05-29T02:11:35.860Z,99.90
2019-05-29T02:14:04.756Z,99.90
2019-05-29T02:16:33.217Z,99.90
2019-05-29T02:19:01.703Z,99.90
2019-05-29T02:21:30.519Z,99.90
2019-05-29T02:23:58.995Z,99.90
2019-05-29T02:26:27.452Z,99.90
2019-05-29T02:28:55.933Z,99.90
2019-05-29T02:31:26.579Z,99.90
2019-05-29T02:33:54.775Z,99.90
2019-05-29T02:36:24.557Z,99.90
2019-05-29T02:38:53.806Z,99.90
2019-05-29T02:41:24.158Z,99.90
2019-05-29T02:43:52.829Z,99.90
2019-05-29T02:46:22.324Z,99.90
2019-05-29T02:48:52.257Z,99.90
2019-05-29T02:51:22.050Z,99.90
2019-05-29T02:53:51.063Z,99.90
2019-05-29T02:56:20.641Z,99.90
2019-05-29T02:58:49.680Z,99.90
2019-05-29T03:01:18.219Z,99.90
2019-05-29T03:03:46.687Z,99.90
2019-05-29T03:06:15.239Z,99.90
2019-05-29T03:08:44.141Z,99.90
2019-05-29T03:11:13.031Z,99.90
2019-05-29T03:13:41.920Z,99.90
2019-05-29T03:16:12.678Z,99.90
2019-05-29T03:18:41.244Z,99.90
2019-05-29T03:21:10.146Z,99.90
2019-05-29T03:23:38.942Z,99.90
2019-05-29T03:26:07.833Z,99.90
2019-05-29T03:28:37.987Z,99.90
2019-05-29T03:31:06.492Z,99.90
2019-05-29T03:33:45.075Z,99.90
2019-05-29T03:36:05.572Z,99.90
2019-05-29T03:38:35.058Z,99.90
2019-05-29T03:41:04.173Z,99.90
2019-05-29T03:43:35.545Z,99.90
2019-05-29T03:46:03.269Z,99.90
2019-05-29T03:48:32.379Z,99.90
2019-05-29T03:51:01.997Z,99.90
2019-05-29T03:53:31.591Z,99.90
2019-05-29T03:56:01.023Z,99.90
2019-05-29T03:58:30.907Z,99.90
2019-05-29T04:00:59.687Z,99.90
2019-05-29T04:03:28.989Z,99.90
2019-05-29T04:05:57.670Z,99.90
2019-05-29T04:08:27.434Z,99.90
2019-05-29T04:10:57.266Z,99.90
2019-05-29T04:13:27.490Z,99.90
2019-05-29T04:15:56.759Z,99.90
2019-05-29T04:18:27.550Z,99.90
2019-05-29T04:20:57.097Z,99.90
2019-05-29T04:23:29.949Z,99.90
2019-05-29T04:25:59.827Z,99.90
2019-05-29T04:28:30.187Z,99.90
2019-05-29T04:30:59.373Z,99.90
2019-05-29T04:33:28.265Z,99.90
2019-05-29T04:35:56.744Z,99.90
2019-05-29T04:38:25.643Z,99.90
2019-05-29T04:40:54.116Z,99.90
2019-05-29T04:43:22.929Z,99.90
2019-05-29T04:45:51.721Z,99.90
2019-05-29T04:48:20.251Z,99.90
2019-05-29T04:50:48.795Z,99.90
2019-05-29T04:53:17.257Z,99.90
2019-05-29T04:55:45.808Z,99.90
2019-05-29T04:58:14.560Z,99.90
2019-05-29T05:00:58.144Z,99.90
2019-05-29T05:03:13.287Z,99.90
2019-05-29T05:05:42.067Z,99.90
2019-05-29T05:08:10.984Z,99.90
2019-05-29T05:10:41.285Z,99.90
2019-05-29T05:13:10.388Z,99.90
2019-05-29T05:15:40.618Z,99.90
2019-05-29T05:18:09.163Z,99.90
2019-05-29T05:20:38.306Z,99.90
2019-05-29T05:23:07.504Z,99.90
2019-05-29T05:25:36.356Z,99.90
2019-05-29T05:28:05.606Z,99.90
2019-05-29T05:30:34.374Z,99.90
2019-05-29T05:33:03.048Z,99.90
2019-05-29T05:35:32.605Z,99.90
2019-05-29T05:38:01.350Z,99.90
2019-05-29T05:40:30.751Z,99.90
2019-05-29T05:42:59.791Z,99.90
2019-05-29T05:45:28.586Z,99.90
2019-05-29T05:47:58.198Z,99.90
2019-05-29T05:50:27.140Z,99.90
2019-05-29T05:52:55.983Z,99.90
2019-05-29T05:55:24.511Z,99.90
2019-05-29T05:57:53.260Z,99.90
2019-05-29T06:00:31.705Z,99.90
2019-05-29T06:03:03.540Z,99.90
2019-05-29T06:05:32.431Z,99.90
2019-05-29T06:08:01.037Z,99.90
2019-05-29T06:10:29.495Z,99.90
2019-05-29T06:12:57.976Z,99.90
2019-05-29T06:15:26.507Z,99.90
2019-05-29T06:18:10.410Z,99.90
2019-05-29T06:20:25.551Z,99.90
2019-05-29T06:22:54.431Z,99.90
2019-05-29T06:25:23.060Z,99.90
2019-05-29T06:27:51.791Z,99.90
2019-05-29T06:30:20.783Z,99.90
2019-05-29T06:32:49.256Z,99.90
2019-05-29T06:35:17.779Z,99.90
2019-05-29T06:37:46.256Z,99.90
2019-05-29T06:40:17.963Z,99.90
2019-05-29T06:42:46.596Z,99.90
2019-05-29T06:45:18.569Z,99.90
2019-05-29T06:47:47.100Z,99.90
2019-05-29T06:50:15.888Z,99.90
2019-05-29T06:52:44.368Z,99.90
2019-05-29T06:55:12.904Z,99.90
2019-05-29T06:57:42.623Z,99.90
2019-05-29T07:00:11.924Z,99.90
2019-05-29T07:02:40.872Z,99.90
2019-05-29T07:05:09.451Z,99.90
2019-05-29T07:07:38.342Z,99.90
2019-05-29T07:10:07.195Z,99.90
2019-05-29T07:12:36.336Z,99.90
2019-05-29T07:15:08.003Z,99.90
2019-05-29T07:17:36.844Z,99.90
2019-05-29T07:20:06.442Z,99.90
2019-05-29T07:22:34.916Z,99.90
2019-05-29T07:25:04.615Z,99.90
2019-05-29T07:27:33.067Z,99.90
2019-05-29T07:30:01.545Z,99.90
2019-05-29T07:32:30.414Z,99.90
2019-05-29T07:35:03.543Z,99.90
2019-05-29T07:37:29.441Z,99.90
2019-05-29T07:39:57.987Z,99.90
2019-05-29T07:42:26.455Z,99.90
2019-05-29T07:44:54.935Z,99.90
2019-05-29T07:47:23.465Z,99.90
2019-05-29T07:49:52.381Z,99.90
2019-05-29T07:52:20.921Z,99.90
2019-05-29T07:54:50.058Z,99.90
2019-05-29T07:57:19.065Z,99.90
2019-05-29T07:59:48.861Z,99.90
2019-05-29T08:02:17.775Z,99.90
2019-05-29T08:04:47.200Z,99.90
2019-05-29T08:07:16.079Z,99.90
2019-05-29T08:09:45.642Z,99.90
2019-05-29T08:12:14.299Z,99.90
2019-05-29T08:14:43.755Z,99.90
2019-05-29T08:17:12.660Z,99.90
2019-05-29T08:19:57.069Z,99.90
2019-05-29T08:22:12.011Z,99.90
2019-05-29T08:24:40.716Z,99.90
2019-05-29T08:27:09.497Z,99.90
2019-05-29T08:29:38.389Z,99.90
2019-05-29T08:32:07.180Z,99.90
2019-05-29T08:34:35.987Z,99.90
2019-05-29T08:37:07.306Z,99.90
2019-05-29T08:39:36.812Z,99.90
2019-05-29T08:42:22.795Z,99.90
2019-05-29T08:44:36.156Z,99.90
2019-05-29T08:47:10.525Z,99.90
2019-05-29T08:49:35.159Z,99.90
2019-05-29T08:52:11.779Z,99.90
2019-05-29T08:54:34.157Z,99.90
2019-05-29T08:57:02.989Z,99.90
2019-05-29T08:59:31.468Z,99.90
2019-05-29T09:02:00.291Z,99.90
2019-05-29T09:04:29.481Z,99.90
2019-05-29T09:06:58.367Z,99.90
2019-05-29T09:09:26.839Z,99.90
2019-05-29T09:11:55.299Z,99.90
2019-05-29T09:14:24.187Z,99.90
2019-05-29T09:16:53.036Z,99.90
2019-05-29T09:19:22.861Z,99.90
2019-05-29T09:21:51.420Z,99.90
2019-05-29T09:24:20.936Z,99.90
2019-05-29T09:26:49.592Z,99.90
2019-05-29T09:29:21.437Z,99.90
2019-05-29T09:31:48.551Z,99.90
2019-05-29T09:34:18.620Z,99.90
2019-05-29T09:36:47.709Z,99.90
2019-05-29T09:39:16.657Z,99.90
2019-05-29T09:41:46.395Z,99.90
2019-05-29T09:44:31.283Z,99.90
2019-05-29T09:46:45.416Z,99.90
2019-05-29T09:49:15.822Z,99.90
2019-05-29T09:51:44.828Z,99.90
2019-05-29T09:54:13.672Z,99.90
2019-05-29T09:56:42.177Z,99.90
2019-05-29T09:59:10.637Z,99.90
2019-05-29T10:01:39.390Z,99.90
2019-05-29T10:04:08.276Z,99.90
2019-05-29T10:06:37.072Z,99.90
2019-05-29T10:09:08.141Z,99.90
2019-05-29T10:11:37.026Z,99.90
2019-05-29T10:14:05.821Z,99.90
2019-05-29T10:16:34.297Z,99.90
2019-05-29T10:19:03.256Z,99.90
2019-05-29T10:21:51.524Z,99.90
2019-05-29T10:24:19.989Z,99.90
2019-05-29T10:26:48.541Z,99.90
2019-05-29T10:29:17.350Z,99.90
2019-05-29T10:31:48.834Z,99.90
2019-05-29T10:34:17.839Z,99.90
2019-05-29T10:36:49.912Z,99.90
2019-05-29T10:39:16.863Z,99.90
2019-05-29T10:41:46.709Z,99.90
2019-05-29T10:44:15.300Z,99.90
2019-05-29T10:46:46.948Z,99.90
2019-05-29T10:49:14.407Z,99.90
2019-05-29T10:52:00.381Z,99.90
2019-05-29T10:54:13.832Z,99.90
2019-05-29T10:56:42.730Z,99.90
2019-05-29T10:59:11.267Z,99.90
2019-05-29T11:01:40.108Z,90.40
2019-05-29T11:04:08.980Z,99.90
2019-05-29T11:06:40.562Z,99.90
2019-05-29T11:09:08.317Z,99.90
2019-05-29T11:11:37.209Z,99.90
2019-05-29T11:14:06.104Z,94.30
2019-05-29T11:16:34.895Z,91.20
2019-05-29T11:19:03.395Z,99.90
2019-05-29T11:21:32.276Z,99.90
2019-05-29T11:24:00.734Z,99.90
2019-05-29T11:26:29.287Z,95.90
2019-05-29T11:28:58.733Z,72.00
2019-05-29T11:31:27.766Z,71.10
2019-05-29T11:33:57.156Z,66.20
2019-05-29T11:36:25.875Z,73.90
2019-05-29T11:38:56.726Z,90.40
2019-05-29T11:41:26.871Z,90.50
2019-05-29T11:43:55.407Z,94.00
2019-05-29T11:46:24.201Z,77.50
2019-05-29T11:48:53.110Z,76.80
2019-05-29T11:51:21.769Z,68.90
2019-05-29T11:53:51.461Z,65.80
2019-05-29T11:56:20.497Z,68.00
2019-05-29T11:58:49.291Z,94.80
2019-05-29T12:01:18.092Z,88.60
2019-05-29T12:04:09.333Z,80.50
2019-05-29T12:06:17.043Z,82.10
2019-05-29T12:08:45.522Z,76.20
2019-05-29T12:11:14.047Z,56.90
2019-05-29T12:13:42.520Z,51.50
2019-05-29T12:16:11.335Z,58.60
2019-05-29T12:18:40.244Z,54.20
2019-05-29T12:21:08.699Z,60.30
2019-05-29T12:23:37.181Z,59.50
2019-05-29T12:26:19.745Z,56.40
2019-05-29T12:28:36.331Z,67.40
2019-05-29T12:31:05.136Z,94.60
2019-05-29T12:33:33.612Z,88.70
2019-05-29T12:36:03.314Z,99.90
2019-05-29T12:38:31.933Z,99.90
2019-05-29T12:41:01.804Z,88.80
2019-05-29T12:43:30.877Z,80.40
2019-05-29T12:46:00.106Z,80.40
2019-05-29T12:48:28.791Z,91.10
2019-05-29T12:50:58.260Z,59.80
2019-05-29T12:53:30.742Z,55.60
2019-05-29T12:55:58.324Z,72.60
2019-05-29T12:58:26.971Z,62.40
2019-05-29T13:00:56.443Z,69.20
2019-05-29T13:03:25.100Z,72.40
2019-05-29T13:05:54.164Z,87.10
2019-05-29T13:08:22.800Z,97.50
2019-05-29T13:10:51.548Z,90.80
2019-05-29T13:15:48.420Z,71.30
2019-05-29T13:18:16.966Z,60.90
2019-05-29T13:20:45.559Z,59.60
2019-05-29T13:23:14.430Z,58.30
2019-05-29T13:25:42.923Z,61.00
2019-05-29T13:28:11.872Z,70.00
2019-05-29T13:30:40.663Z,72.40
2019-05-29T13:33:09.476Z,61.20
2019-05-29T13:35:37.992Z,74.50
2019-05-29T13:38:07.383Z,76.80
2019-05-29T13:40:36.012Z,60.20
2019-05-29T13:43:13.071Z,61.80
2019-05-29T13:45:35.573Z,68.60
2019-05-29T13:48:05.425Z,64.40
2019-05-29T13:50:34.107Z,70.20
2019-05-29T13:53:03.558Z,89.80
2019-05-29T13:55:32.247Z,71.50
2019-05-29T13:58:01.661Z,66.50
2019-05-29T14:00:34.279Z,70.50
2019-05-29T14:03:02.451Z,64.70
2019-05-29T14:05:31.389Z,59.60
2019-05-29T14:08:00.624Z,50.00
2019-05-29T14:10:29.591Z,53.80
2019-05-29T14:12:58.911Z,52.00
2019-05-29T14:15:27.743Z,55.70
2019-05-29T14:17:56.203Z,54.80
2019-05-29T14:20:24.816Z,57.30
2019-05-29T14:22:53.275Z,67.70
2019-05-29T14:25:22.091Z,65.50
2019-05-29T14:27:50.539Z,78.40
2019-05-29T14:30:19.756Z,67.30
2019-05-29T14:32:48.208Z,49.90
2019-05-29T14:35:17.160Z,50.00
2019-05-29T14:37:45.611Z,44.90
2019-05-29T14:40:14.432Z,51.80
2019-05-29T14:42:42.955Z,53.80
2019-05-29T14:45:12.498Z,59.00
2019-05-29T14:47:41.638Z,63.70
2019-05-29T14:50:11.256Z,62.50
2019-05-29T14:52:41.470Z,59.20
2019-05-29T14:55:16.081Z,58.40
2019-05-29T14:57:40.804Z,59.50
2019-05-29T15:00:23.176Z,52.10
2019-05-29T15:02:42.575Z,53.00
2019-05-29T15:05:12.041Z,55.10
2019-05-29T15:07:41.400Z,61.30
2019-05-29T15:10:22.806Z,53.40
2019-05-29T15:12:41.963Z,47.50
2019-05-29T15:15:13.543Z,46.40
2019-05-29T15:17:41.835Z,43.90
2019-05-29T15:20:12.625Z,42.90
2019-05-29T15:22:42.242Z,42.80
2019-05-29T15:25:19.669Z,44.00
2019-05-29T15:27:41.565Z,48.20
2019-05-29T15:30:14.494Z,47.30
2019-05-29T15:32:41.650Z,48.00
2019-05-29T15:35:14.891Z,50.10
2019-05-29T15:37:41.363Z,43.30
2019-05-29T15:40:12.882Z,43.60
2019-05-29T15:42:41.504Z,50.90
2019-05-29T15:45:13.881Z,49.30
2019-05-29T15:47:42.563Z,45.90
2019-05-29T15:50:13.573Z,44.70
2019-05-29T15:52:42.799Z,55.60
2019-05-29T15:55:24.888Z,57.00
2019-05-29T15:57:42.348Z,55.10
2019-05-29T16:00:13.703Z,64.90
2019-05-29T16:02:42.368Z,64.50
2019-05-29T16:05:13.157Z,75.40
2019-05-29T16:07:41.735Z,70.10
2019-05-29T16:10:14.786Z,59.10
2019-05-29T16:12:43.072Z,55.90
2019-05-29T16:15:13.272Z,57.80
2019-05-29T16:17:42.283Z,56.90
2019-05-29T16:20:12.303Z,57.70
2019-05-29T16:22:41.019Z,76.80
2019-05-29T16:25:12.782Z,58.20
2019-05-29T16:27:41.466Z,52.30
2019-05-29T16:30:11.788Z,58.20
2019-05-29T16:32:40.326Z,59.20
2019-05-29T16:35:09.456Z,49.40
2019-05-29T16:37:38.364Z,52.00
2019-05-29T16:40:11.796Z,50.00
2019-05-29T16:42:40.864Z,55.10
2019-05-29T16:45:12.071Z,51.00
2019-05-29T16:47:40.712Z,51.60
2019-05-29T16:50:10.520Z,52.40
2019-05-29T16:52:39.000Z,52.50
2019-05-29T16:55:08.160Z,49.20
2019-05-29T16:57:37.002Z,52.70
2019-05-29T17:00:10.203Z,50.80
2019-05-29T17:02:39.463Z,51.80
2019-05-29T17:05:08.455Z,52.70
2019-05-29T17:07:37.392Z,58.20
2019-05-29T17:10:06.755Z,75.60
2019-05-29T17:12:35.220Z,97.90
2019-05-29T17:15:05.380Z,99.90
2019-05-29T17:17:34.118Z,99.90
2019-05-29T17:20:03.505Z,99.90
2019-05-29T17:22:32.028Z,99.90
2019-05-29T17:25:00.784Z,99.90
2019-05-29T17:27:29.572Z,99.90
2019-05-29T17:29:58.359Z,99.90
2019-05-29T17:32:27.161Z,99.90
2019-05-29T17:34:55.608Z,99.90
2019-05-29T17:37:25.174Z,99.90
2019-05-29T17:39:53.939Z,99.90
2019-05-29T17:42:22.628Z,99.90
2019-05-29T17:44:51.351Z,99.90
2019-05-29T17:47:20.125Z,99.90
2019-05-29T17:49:49.018Z,99.90
2019-05-29T17:52:17.812Z,99.90
2019-05-29T17:54:46.343Z,99.90
2019-05-29T17:57:16.493Z,99.90
2019-05-29T17:59:45.072Z,99.90
2019-05-29T18:02:13.895Z,99.90
2019-05-29T18:04:42.356Z,99.90
2019-05-29T18:07:10.833Z,99.90
2019-05-29T18:09:58.619Z,99.90
2019-05-29T18:12:27.240Z,99.90
2019-05-29T18:14:56.188Z,99.90
2019-05-29T18:17:25.482Z,99.90
2019-05-29T18:19:54.376Z,99.90
2019-05-29T18:22:23.686Z,99.90
2019-05-29T18:24:52.304Z,99.90
2019-05-29T18:27:21.879Z,99.90
2019-05-29T18:29:50.794Z,99.90
2019-05-29T18:32:20.308Z,99.90
2019-05-29T18:34:51.739Z,99.90
2019-05-29T18:37:20.090Z,99.90
2019-05-29T18:39:48.720Z,99.90
2019-05-29T18:42:17.511Z,99.90
2019-05-29T18:44:45.958Z,99.90
2019-05-29T18:47:14.688Z,99.90
2019-05-29T18:49:43.136Z,99.90
2019-05-29T18:52:11.594Z,99.90
2019-05-29T18:54:40.131Z,99.90
2019-05-29T18:57:15.373Z,99.90
2019-05-29T18:59:38.780Z,99.90
2019-05-29T19:02:07.389Z,99.90
2019-05-29T19:04:36.139Z,99.90
2019-05-29T19:07:04.751Z,99.90
2019-05-29T19:09:33.292Z,99.90
2019-05-29T19:12:01.747Z,99.90
2019-05-29T19:14:30.290Z,99.90
2019-05-29T19:16:59.079Z,99.90
2019-05-29T19:19:28.346Z,99.90
2019-05-29T19:21:56.975Z,99.90
2019-05-29T19:24:26.548Z,99.90
2019-05-29T19:26:55.223Z,99.90
2019-05-29T19:29:24.893Z,99.90
2019-05-29T19:31:53.471Z,99.90
2019-05-29T19:34:23.248Z,99.90
2019-05-29T19:36:51.788Z,99.90
2019-05-29T19:39:20.251Z,99.90
2019-05-29T19:41:48.699Z,99.90
2019-05-29T19:44:17.545Z,99.90
2019-05-29T19:46:53.794Z,99.90
2019-05-29T19:49:16.189Z,99.90
2019-05-29T19:51:44.639Z,99.90
2019-05-29T19:54:13.432Z,99.90
2019-05-29T19:56:41.880Z,99.90
2019-05-29T19:59:10.351Z,99.90
2019-05-29T20:01:40.467Z,99.90
2019-05-29T20:04:08.988Z,99.90
2019-05-29T20:06:37.805Z,99.90
2019-05-29T20:09:07.912Z,99.90
2019-05-29T20:11:37.812Z,99.90
2019-05-29T20:14:07.655Z,99.90
2019-05-29T20:16:36.368Z,99.90
2019-05-29T20:19:05.247Z,99.90
2019-05-29T20:21:34.733Z,99.90
2019-05-29T20:24:23.096Z,99.90
2019-05-29T20:26:51.625Z,99.90
2019-05-29T20:29:20.166Z,99.90
2019-05-29T20:31:48.615Z,99.90
2019-05-29T20:34:18.885Z,99.90
2019-05-29T20:36:47.399Z,99.90
2019-05-29T20:39:16.159Z,99.90
2019-05-29T20:41:44.884Z,99.90
2019-05-29T20:44:13.368Z,99.90
2019-05-29T20:46:42.788Z,99.90
2019-05-29T20:49:11.331Z,99.90
2019-05-29T20:51:40.295Z,99.90
2019-05-29T20:54:08.944Z,99.90
2019-05-29T20:56:37.739Z,99.90
2019-05-29T20:59:06.708Z,99.90
2019-05-29T21:01:43.018Z,99.90
2019-05-29T21:04:05.828Z,99.90
2019-05-29T21:06:34.598Z,99.90
2019-05-29T21:09:03.437Z,99.90
2019-05-29T21:11:33.311Z,99.90
2019-05-29T21:14:02.823Z,99.90
2019-05-29T21:16:31.658Z,99.90
2019-05-29T21:19:00.188Z,99.90
2019-05-29T21:21:29.015Z,99.90
2019-05-29T21:23:57.471Z,99.90
2019-05-29T21:26:26.300Z,99.90
2019-05-29T21:28:55.192Z,99.90
2019-05-29T21:31:23.659Z,99.90
2019-05-29T21:33:52.108Z,99.90
2019-05-29T21:36:20.588Z,99.90
2019-05-29T21:38:49.110Z,99.90
2019-05-29T21:41:17.590Z,99.90
2019-05-29T21:43:46.976Z,99.90
2019-05-29T21:46:15.684Z,99.90
2019-05-29T21:48:45.225Z,99.90
2019-05-29T21:51:13.860Z,99.90
2019-05-29T21:53:43.357Z,99.90
2019-05-29T21:56:12.059Z,99.90
2019-05-29T21:58:57.281Z,99.90
2019-05-29T22:01:11.447Z,99.90
2019-05-29T22:03:40.362Z,99.90
2019-05-29T22:06:09.236Z,99.90
2019-05-29T22:08:38.738Z,99.90
2019-05-29T22:11:07.582Z,99.90
2019-05-29T22:13:36.233Z,99.90
2019-05-29T22:16:04.699Z,99.90
2019-05-29T22:18:33.147Z,99.90
2019-05-29T22:21:01.733Z,99.90
2019-05-29T22:23:30.255Z,99.90
2019-05-29T22:25:59.444Z,99.90
2019-05-29T22:28:28.132Z,99.90
2019-05-29T22:30:57.331Z,99.90
2019-05-29T22:33:25.989Z,99.90
2019-05-29T22:35:55.703Z,99.90
2019-05-29T22:38:24.286Z,99.90
2019-05-29T22:40:53.847Z,99.90
2019-05-29T22:43:22.452Z,99.90
2019-05-29T22:45:51.496Z,99.90
2019-05-29T22:48:20.147Z,99.90
2019-05-29T22:50:48.619Z,99.90
2019-05-29T22:53:17.067Z,99.90
2019-05-29T22:55:45.536Z,99.90
2019-05-29T22:58:13.992Z,99.90
2019-05-29T23:00:42.997Z,99.90
2019-05-29T23:03:11.889Z,99.90
2019-05-29T23:05:40.411Z,99.90
2019-05-29T23:08:09.176Z,99.90
2019-05-29T23:10:37.623Z,99.90
2019-05-29T23:13:06.450Z,99.90
2019-05-29T23:15:34.971Z,99.90
2019-05-29T23:18:03.820Z,99.90
2019-05-29T23:20:32.527Z,99.90
2019-05-29T23:23:00.999Z,99.90
2019-05-29T23:25:29.520Z,99.90
2019-05-29T23:27:58.988Z,99.90
2019-05-29T23:30:30.452Z,99.90
2019-05-29T23:32:58.994Z,99.90
2019-05-29T23:35:27.635Z,99.90
2019-05-29T23:37:57.008Z,99.90
2019-05-29T23:40:25.545Z,99.90
2019-05-29T23:42:55.332Z,99.90
2019-05-29T23:45:24.219Z,99.90
2019-05-29T23:47:53.389Z,99.90
2019-05-29T23:50:22.323Z,99.90
2019-05-29T23:52:50.796Z,99.90
2019-05-29T23:55:19.807Z,99.90
2019-05-29T23:57:48.604Z,99.90
